Time;durP1;ratioP1;P1;durP2;ratioP2;P2;SDS_P1;SDS_P2;PMS_P1;PMS_P2;Temp;Humidity;BMP_temperature;BMP_pressure;BME280_temperature;BME280_humidity;BME280_pressure;Samples;Min_cycle;Max_cycle;Signal;HPM_P1;HPM_P2
2021/05/29 00:07:32;;;;;;;3.10;0.80;;;17.70;99.90;;;;;;20694899;28;20586;-64
2021/05/29 00:17:36;;;;;;;0.20;0.20;;;17.80;99.90;;;;;;20693160;28;20190;-65
2021/05/29 00:27:39;;;;;;;0.40;0.33;;;17.60;99.90;;;;;;20693046;28;20257;-64
2021/05/29 00:37:44;;;;;;;4.60;0.63;;;17.70;99.90;;;;;;20709620;28;20664;-64
2021/05/29 00:47:47;;;;;;;0.60;0.37;;;17.70;99.90;;;;;;20719730;28;20740;-63
2021/05/29 00:57:52;;;;;;;2.73;0.70;;;17.30;99.90;;;;;;20716823;28;20198;-64
2021/05/29 01:07:55;;;;;;;0.57;0.37;;;17.30;99.90;;;;;;20718651;28;20242;-63
2021/05/29 01:17:59;;;;;;;0.70;0.70;;;17.40;99.90;;;;;;20716987;28;20195;-63
2021/05/29 01:28:06;;;;;;;0.20;0.20;;;17.20;99.90;;;;;;20717708;28;20653;-63
2021/05/29 01:38:11;;;;;;;0.43;0.40;;;16.90;99.90;;;;;;20656284;28;20191;-63
2021/05/29 01:48:18;;;;;;;1.03;0.90;;;16.90;99.90;;;;;;20608581;28;20231;-63
2021/05/29 01:58:22;;;;;;;0.77;0.30;;;17.20;99.90;;;;;;20612110;28;20463;-63
2021/05/29 02:08:26;;;;;;;0.20;0.10;;;16.60;99.90;;;;;;20640921;28;20592;-63
2021/05/29 02:18:30;;;;;;;0.30;0.20;;;16.60;99.90;;;;;;20702630;28;20214;-63
2021/05/29 02:28:35;;;;;;;1.03;0.37;;;16.70;99.90;;;;;;20701536;28;20234;-63
2021/05/29 02:38:38;;;;;;;0.27;0.27;;;16.70;99.90;;;;;;20681898;28;20187;-62
2021/05/29 02:48:44;;;;;;;0.43;0.43;;;16.70;99.90;;;;;;20697239;28;20575;-63
2021/05/29 02:58:47;;;;;;;0.27;0.27;;;16.60;99.90;;;;;;20700653;28;20493;-63
2021/05/29 03:08:51;;;;;;;1.13;0.70;;;16.40;99.90;;;;;;20695784;28;20720;-65
2021/05/29 03:18:54;;;;;;;0.50;0.50;;;16.50;99.90;;;;;;20679320;28;20199;-63
2021/05/29 03:28:59;;;;;;;0.27;0.20;;;16.50;99.90;;;;;;20676324;28;20222;-63
2021/05/29 03:39:02;;;;;;;0.20;0.20;;;16.40;99.90;;;;;;20694355;28;20206;-64
2021/05/29 03:49:06;;;;;;;0.70;0.40;;;16.50;99.90;;;;;;20694942;28;20742;-64
2021/05/29 03:59:13;;;;;;;0.50;0.20;;;16.30;99.90;;;;;;20631334;28;20301;-64
2021/05/29 04:09:17;;;;;;;0.50;0.50;;;16.20;99.90;;;;;;20611973;28;20242;-64
2021/05/29 04:19:20;;;;;;;4.47;2.73;;;16.30;99.90;;;;;;20694254;28;20206;-64
2021/05/29 04:29:24;;;;;;;0.37;0.30;;;16.50;99.90;;;;;;20688608;28;20223;-64
2021/05/29 04:39:27;;;;;;;0.80;0.50;;;16.30;99.90;;;;;;20691240;28;20566;-62
2021/05/29 04:49:31;;;;;;;0.57;0.57;;;16.30;99.90;;;;;;20693416;28;20222;-63
2021/05/29 04:59:34;;;;;;;0.73;0.73;;;16.60;99.90;;;;;;20693688;28;20202;-64
2021/05/29 05:09:38;;;;;;;1.00;0.27;;;16.50;99.90;;;;;;20660938;28;20548;-65
2021/05/29 05:19:42;;;;;;;1.23;1.13;;;16.70;99.90;;;;;;20597056;28;20316;-64
2021/05/29 05:29:45;;;;;;;0.73;0.50;;;16.80;99.90;;;;;;20622619;28;20219;-65
2021/05/29 05:39:49;;;;;;;0.87;0.60;;;17.20;99.90;;;;;;20624438;28;20513;-64
2021/05/29 05:49:53;;;;;;;3.10;1.63;;;17.60;99.90;;;;;;20621305;28;20692;-64
2021/05/29 05:59:56;;;;;;;4.30;0.87;;;18.00;99.90;;;;;;20621890;28;20564;-60
2021/05/29 06:10:00;;;;;;;0.93;0.93;;;18.20;99.90;;;;;;20652642;28;20229;-63
2021/05/29 06:20:05;;;;;;;0.63;0.60;;;18.50;99.90;;;;;;20702797;28;20199;-64
2021/05/29 06:30:12;;;;;;;3.37;1.17;;;18.90;99.90;;;;;;20683554;28;20226;-64
2021/05/29 06:40:15;;;;;;;1.07;0.70;;;19.30;99.90;;;;;;20702849;28;20203;-65
2021/05/29 06:50:19;;;;;;;0.53;0.53;;;19.50;99.90;;;;;;20701394;28;20223;-65
2021/05/29 07:00:22;;;;;;;1.43;1.17;;;19.70;99.90;;;;;;20696577;28;20318;-65
2021/05/29 07:10:26;;;;;;;3.90;2.50;;;19.90;99.90;;;;;;20581837;28;20587;-63
2021/05/29 07:20:32;;;;;;;1.60;1.50;;;19.80;99.90;;;;;;20612471;28;20204;-63
2021/05/29 07:30:36;;;;;;;1.03;0.87;;;20.10;99.90;;;;;;20613331;28;20253;-63
2021/05/29 07:40:39;;;;;;;0.87;0.80;;;20.40;99.90;;;;;;20610443;28;20223;-64
2021/05/29 07:50:57;;;;;;;0.73;0.47;;;20.50;99.90;;;;;;20609293;28;20350;-64
2021/05/29 08:01:00;;;;;;;8.20;1.17;;;20.60;99.90;;;;;;20608139;28;20595;-63
2021/05/29 08:11:05;;;;;;;1.60;0.67;;;20.60;99.90;;;;;;20593109;28;20234;-65
2021/05/29 08:21:08;;;;;;;2.17;1.27;;;20.70;99.90;;;;;;20691109;28;20602;-65
2021/05/29 08:31:14;;;;;;;2.20;0.93;;;21.00;99.90;;;;;;20670995;28;20227;-65
2021/05/29 08:41:18;;;;;;;4.60;1.27;;;21.30;99.90;;;;;;20673367;28;20191;-66
2021/05/29 08:51:22;;;;;;;3.67;1.47;;;20.90;99.90;;;;;;20690150;28;20244;-64
2021/05/29 09:01:26;;;;;;;1.50;1.30;;;20.90;99.90;;;;;;20689285;28;20230;-63
2021/05/29 09:11:43;;;;;;;5.23;1.50;;;20.90;99.90;;;;;;20656146;28;20576;-66
2021/05/29 09:21:46;;;;;;;5.57;1.90;;;21.20;99.90;;;;;;20621980;28;20584;-67
2021/05/29 09:31:56;;;;;;;7.53;2.27;;;21.90;99.90;;;;;;20621253;28;20425;-66
2021/05/29 09:42:00;;;;;;;1.33;1.23;;;22.20;99.90;;;;;;20620583;28;20566;-66
2021/05/29 09:52:22;;;;;;;1.75;1.65;;;23.00;99.90;;;;;;20620464;28;20371;-63
2021/05/29 10:02:26;;;;;;;0.90;0.65;;;23.70;99.90;;;;;;20620337;28;20306;-65
2021/05/29 10:12:30;;;;;;;0.38;0.25;;;23.70;99.90;;;;;;20673004;28;20669;-66
2021/05/29 10:22:33;;;;;;;3.03;0.95;;;23.80;99.90;;;;;;20700817;28;20316;-66
2021/05/29 10:32:38;;;;;;;0.40;0.40;;;24.00;99.90;;;;;;20696319;28;20279;-64
2021/05/29 10:42:41;;;;;;;0.20;0.20;;;24.20;99.90;;;;;;20699271;28;20270;-65
2021/05/29 10:52:52;;;;;;;0.80;0.80;;;24.20;99.90;;;;;;20696661;28;20222;-65
2021/05/29 11:03:24;;;;;;;10.10;0.77;;;24.00;99.90;;;;;;20694598;28;20252;-63
2021/05/29 11:14:03;;;;;;;5.88;1.08;;;24.60;99.90;;;;;;20631029;28;20225;-62
2021/05/29 11:24:17;;;;;;;1.00;0.82;;;24.40;99.90;;;;;;20603619;28;20238;-64
2021/05/29 11:34:21;;;;;;;1.33;0.15;;;26.30;99.90;;;;;;20610890;28;20226;-65
2021/05/29 11:44:25;;;;;;;7.30;1.20;;;25.90;99.90;;;;;;20612320;28;20203;-66
2021/05/29 11:54:35;;;;;;;1.00;1.00;;;26.10;99.90;;;;;;20610420;28;20227;-65
2021/05/29 12:04:38;;;;;;;2.50;0.40;;;26.20;99.90;;;;;;20611602;28;20696;-65
2021/05/29 12:14:43;;;;;;;1.30;1.20;;;26.70;99.90;;;;;;20684379;28;20230;-65
2021/05/29 12:24:48;;;;;;;1.30;0.88;;;27.10;99.90;;;;;;20693212;28;20481;-66
2021/05/29 12:34:51;;;;;;;1.40;0.90;;;28.00;99.90;;;;;;20688772;28;20721;-66
2021/05/29 12:44:57;;;;;;;3.67;1.10;;;28.60;99.90;;;;;;20692455;28;20198;-64
2021/05/29 12:55:03;;;;;;;4.72;1.08;;;29.20;99.90;;;;;;20689447;28;20711;-64
2021/05/29 13:15:26;;;;;;;5.47;1.67;;;30.20;99.90;;;;;;20561828;28;20659;-64
2021/05/29 13:25:41;;;;;;;2.38;1.48;;;29.90;99.90;;;;;;20608646;28;20207;-63
2021/05/29 13:35:46;;;;;;;1.52;1.00;;;30.10;99.90;;;;;;20588916;28;20242;-64
2021/05/29 13:45:49;;;;;;;0.85;0.85;;;30.50;99.90;;;;;;20618600;28;20199;-64
2021/05/29 13:55:53;;;;;;;0.30;0.30;;;30.20;99.90;;;;;;20619381;28;20234;-64
2021/05/29 14:05:56;;;;;;;1.50;0.63;;;30.10;99.90;;;;;;20620722;28;20238;-63
2021/05/29 14:16:01;;;;;;;4.20;0.98;;;30.50;99.90;;;;;;20700405;28;20467;-66
2021/05/29 14:26:04;;;;;;;0.70;0.70;;;31.10;99.90;;;;;;20701927;28;20656;-64
2021/05/29 14:36:10;;;;;;;4.03;1.92;;;32.30;99.90;;;;;;20696690;28;20650;-64
2021/05/29 14:46:13;;;;;;;1.25;1.15;;;32.40;99.90;;;;;;20697377;28;20211;-65
2021/05/29 14:56:18;;;;;;;0.68;0.65;;;31.80;99.90;;;;;;20696007;28;20365;-65
2021/05/29 15:06:22;;;;;;;1.33;1.20;;;30.40;99.90;;;;;;20692830;28;20302;-65
2021/05/29 15:16:26;;;;;;;1.90;1.02;;;31.00;99.90;;;;;;20615577;28;20568;-65
2021/05/29 15:26:32;;;;;;;1.63;0.80;;;30.50;99.90;;;;;;20611760;28;20204;-65
2021/05/29 15:36:36;;;;;;;2.40;0.63;;;29.40;99.90;;;;;;20612778;28;20203;-66
2021/05/29 15:46:39;;;;;;;3.63;0.80;;;28.10;99.90;;;;;;20611583;28;20302;-67
2021/05/29 15:56:43;;;;;;;1.80;0.98;;;27.50;99.90;;;;;;20595215;28;20195;-66
2021/05/29 16:06:46;;;;;;;1.40;0.85;;;25.50;99.90;;;;;;20607701;28;20545;-66
2021/05/29 16:16:50;;;;;;;2.67;1.05;;;25.00;99.90;;;;;;20642853;28;20442;-64
2021/05/29 16:26:54;;;;;;;1.42;1.33;;;25.10;99.90;;;;;;20689312;28;20217;-66
2021/05/29 16:36:58;;;;;;;0.50;0.40;;;29.00;99.90;;;;;;20691082;28;20615;-63
2021/05/29 16:47:01;;;;;;;2.10;0.75;;;28.80;99.90;;;;;;20686928;28;20207;-64
2021/05/29 16:57:06;;;;;;;0.75;0.73;;;29.20;99.90;;;;;;20670008;28;20202;-65
2021/05/29 17:07:09;;;;;;;1.48;0.57;;;29.70;99.90;;;;;;20676447;28;20649;-64
2021/05/29 17:17:12;;;;;;;1.65;0.70;;;30.00;99.90;;;;;;20615412;28;20206;-68
2021/05/29 17:27:16;;;;;;;1.17;0.70;;;29.10;99.90;;;;;;20622790;28;20593;-67
2021/05/29 17:37:20;;;;;;;3.28;1.40;;;28.70;99.90;;;;;;20620559;28;20210;-66
2021/05/29 17:47:23;;;;;;;0.80;0.80;;;28.70;99.90;;;;;;20620341;28;20215;-65
2021/05/29 17:57:29;;;;;;;2.22;1.42;;;28.30;99.90;;;;;;20600632;28;20815;-68
2021/05/29 18:07:32;;;;;;;1.50;0.70;;;27.70;99.90;;;;;;20614736;28;20237;-66
2021/05/29 18:17:37;;;;;;;3.20;1.00;;;27.30;99.90;;;;;;20614247;28;20607;-65
2021/05/29 18:27:40;;;;;;;0.68;0.68;;;26.90;99.90;;;;;;20586194;28;20313;-61
2021/05/29 18:48:02;;;;;;;1.27;0.93;;;23.20;99.90;;;;;;20535459;28;20254;-65
2021/05/29 18:58:09;;;;;;;0.83;0.60;;;22.70;99.90;;;;;;20532691;28;20189;-65
2021/05/29 19:18:36;;;;;;;1.93;1.40;;;22.90;99.90;;;;;;20675619;28;20191;-66
2021/05/29 19:28:40;;;;;;;0.50;0.50;;;23.10;99.90;;;;;;20693698;28;20589;-65
2021/05/29 20:30:36;;;;;;;0.40;0.40;;;22.30;99.90;;;;;;20611210;28;20699;-67
2021/05/29 20:40:40;;;;;;;1.58;0.52;;;23.00;99.90;;;;;;20609593;28;20199;-65
2021/05/29 20:50:55;;;;;;;0.63;0.40;;;23.80;99.90;;;;;;20595925;28;20346;-65
2021/05/29 21:01:00;;;;;;;0.63;0.40;;;23.80;99.90;;;;;;20622437;28;20274;-65
2021/05/29 21:11:03;;;;;;;1.35;0.63;;;23.70;99.90;;;;;;20667212;28;20238;-66
2021/05/29 21:21:08;;;;;;;0.70;0.60;;;23.80;99.90;;;;;;20665395;28;20192;-66
2021/05/29 21:31:12;;;;;;;2.90;0.90;;;23.80;99.90;;;;;;20627732;28;20219;-66
2021/05/29 21:41:16;;;;;;;0.70;0.70;;;23.80;99.90;;;;;;20632363;28;20232;-67
2021/05/29 21:51:19;;;;;;;0.95;0.85;;;23.90;99.90;;;;;;20622572;28;20258;-66
2021/05/29 22:01:25;;;;;;;1.23;0.97;;;23.80;99.90;;;;;;20614426;28;20227;-67
2021/05/29 22:11:44;;;;;;;2.00;0.80;;;23.70;99.90;;;;;;20666477;28;20683;-65
2021/05/29 22:32:10;;;;;;;0.75;0.40;;;23.80;99.90;;;;;;20698102;28;20347;-66
2021/05/29 22:42:14;;;;;;;1.75;0.82;;;23.90;99.90;;;;;;20702423;28;20227;-66
2021/05/29 22:52:17;;;;;;;5.38;1.10;;;23.60;99.90;;;;;;20698225;28;20223;-65
2021/05/29 23:02:21;;;;;;;0.30;0.30;;;23.20;99.90;;;;;;20636186;28;20223;-66
2021/05/29 23:12:24;;;;;;;1.03;0.60;;;23.10;99.90;;;;;;20643280;28;20238;-67
2021/05/29 23:22:28;;;;;;;8.30;1.47;;;23.10;99.90;;;;;;20666754;28;20286;-64
2021/05/29 23:32:31;;;;;;;0.80;0.70;;;23.10;99.90;;;;;;20615334;28;20693;-64
2021/05/29 23:42:36;;;;;;;2.40;1.17;;;22.60;99.90;;;;;;20615435;28;20211;-65
2021/05/29 23:52:40;;;;;;;0.23;0.20;;;22.50;99.90;;;;;;20594799;28;20223;-65
